GW2042 Weather Reports


Display with metric or nautical units.
time (UTC)temp
F
wind
direction
speed
MPH
gust
MPH
rain 1hr
in
rain 24hr
in
rain mn
in
humidity
%
barometer
mb
20260502170516 69 12 1.0 6.0 0.00 0.01 0.00 45 1023.5
20260502164021 68 317 2.0 8.0 0.00 0.01 0.00 47 1023.7
20260502163515 67 286 4.0 10.0 0.00 0.01 0.00 46 1023.6
20260502163037 68 318 4.0 10.0 0.00 0.01 0.00 48 1023.6
20260502162516 67 0 1.0 8.0 0.00 0.01 0.00 54 1023.6
20260502162024 67 302 3.0 8.0 0.00 0.01 0.00 53 1023.6
20260502161536 67 229 1.0 10.0 0.00 0.01 0.00 54 1023.7
20260502161015 66 0 4.0 10.0 0.00 0.01 0.00 50 1023.7
20260502160519 67 315 2.0 9.0 0.00 0.01 0.00 55 1023.7
20260502152016 64 342 3.0 8.0 0.00 0.01 0.00 63 1023.5
20260502151532 64 298 4.0 10.0 0.00 0.01 0.00 66 1023.6
20260502151015 63 284 4.0 11.0 0.00 0.01 0.00 63 1023.5
20260502150515 63 309 6.0 11.0 0.00 0.01 0.00 65 1023.5
20260502130516 45 0 0.0 2.0 0.00 0.02 0.00 94 1022.6
20260502123515 43 0 0.0 2.0 0.00 0.04 0.00 93 1022.3
20260502123043 43 0 0.0 1.0 0.00 0.04 0.00 93 1022.3
20260502122515 43 329 0.0 1.0 0.00 0.04 0.00 92 1022.1
20260502122017 42 0 0.0 1.0 0.00 0.04 0.00 92 1022.0
20260502121535 42 0 0.0 1.0 0.00 0.04 0.00 92 1021.9
20260502121017 42 0 0.0 1.0 0.00 0.04 0.00 91 1021.9
20260502120515 42 0 0.0 1.0 0.00 0.04 0.00 91 1021.8
20260502115516 42 0 0.0 0.0 0.00 0.06 0.00 91 1021.5
20260502115016 42 0 0.0 0.0 0.00 0.06 0.00 91 1021.5
20260502114531 42 0 0.0 0.0 0.00 0.06 0.00 91 1021.4
20260502114021 42 0 0.0 0.0 0.00 0.06 0.00 91 1021.5
20260502113516 42 0 0.0 0.0 0.00 0.06 0.00 91 1021.4
20260502113035 42 0 0.0 0.0 0.00 0.06 0.00 91 1021.3
20260502112515 42 0 0.0 0.0 0.00 0.06 0.00 91 1021.3
20260502112015 42 0 0.0 0.0 0.00 0.06 0.00 90 1021.1
20260502111532 42 0 0.0 0.0 0.00 0.06 0.00 90 1021.0
20260502111015 42 0 0.0 0.0 0.00 0.06 0.00 90 1020.9
20260502110515 42 0 0.0 0.0 0.00 0.06 0.00 90 1020.9
20260502110033 43 0 0.0 0.0 0.00 0.06 0.00 90 1020.8
20260502105515 43 0 0.0 0.0 0.00 0.06 0.00 90 1020.7
20260502105016 43 0 0.0 0.0 0.00 0.06 0.00 90 1020.7
20260502104536 43 0 0.0 0.0 0.00 0.06 0.00 90 1020.6
20260502104015 43 0 0.0 0.0 0.00 0.06 0.00 90 1020.4
20260502103516 43 0 0.0 0.0 0.00 0.06 0.00 90 1020.3
20260502103030 43 0 0.0 0.0 0.00 0.06 0.00 90 1020.2
20260502102516 43 0 0.0 0.0 0.00 0.06 0.00 90 1020.1
20260502102016 44 0 0.0 0.0 0.00 0.06 0.00 90 1020.0
20260502101530 44 0 0.0 0.0 0.00 0.06 0.00 90 1020.1
20260502101015 44 0 0.0 0.0 0.00 0.06 0.00 90 1020.0
20260502100519 44 0 0.0 0.0 0.00 0.06 0.00 90 1019.9
20260502091533 45 0 0.0 0.0 0.00 0.06 0.00 90 1020.0
20260502091017 45 0 0.0 0.0 0.00 0.06 0.00 90 1020.1
20260502090515 46 0 0.0 0.0 0.00 0.06 0.00 91 1020.1
20260502071529 49 0 0.0 0.0 0.00 0.06 0.00 90 1020.1
20260502071015 49 0 0.0 0.0 0.00 0.06 0.00 90 1020.2
20260502070516 49 0 0.0 0.0 0.00 0.06 0.00 90 1020.2
20260502070044 49 0 0.0 0.0 0.00 0.06 0.00 90 1020.2
20260502065514 50 0 0.0 0.0 0.00 0.06 0.00 91 1020.3
20260502065015 50 0 0.0 1.0 0.00 0.06 0.00 91 1020.4
20260502064530 50 0 0.0 2.0 0.00 0.06 0.00 91 1020.4
20260502064015 50 0 0.0 2.0 0.00 0.06 0.00 91 1020.5
20260502063515 50 0 0.0 1.0 0.00 0.06 0.00 91 1020.5
20260502063036 50 0 0.0 1.0 0.00 0.06 0.00 91 1020.4
20260502062515 50 0 0.0 1.0 0.00 0.06 0.00 91 1020.3
20260502062017 49 0 0.0 2.0 0.00 0.06 0.00 90 1020.3
20260502061530 49 329 0.0 2.0 0.00 0.06 0.00 90 1020.3
20260502061014 49 0 0.0 0.0 0.00 0.06 0.00 90 1020.4
20260502060515 49 0 0.0 0.0 0.00 0.06 0.00 89 1020.1
20260502060032 49 0 0.0 0.0 0.00 0.06 0.00 89 1020.2
20260502055519 49 0 0.0 0.0 0.00 0.06 0.00 89 1020.1
20260502055016 49 0 0.0 0.0 0.00 0.06 0.00 88 1020.3
20260502054529 49 0 0.0 1.0 0.00 0.06 0.00 88 1020.2
20260502054017 49 0 0.0 1.0 0.00 0.06 0.00 88 1020.2
20260502053515 49 0 0.0 1.0 0.00 0.06 0.00 88 1020.2
20260502053032 49 0 0.0 0.0 0.00 0.06 0.00 87 1020.3
20260502052520 49 0 0.0 0.0 0.00 0.06 0.00 87 1020.2
20260502052014 49 0 0.0 0.0 0.00 0.06 0.00 87 1020.1
20260502051531 50 0 0.0 0.0 0.00 0.06 0.00 87 1020.2
20260502051015 50 0 0.0 0.0 0.00 0.06 0.00 85 1020.3
20260502050515 50 0 0.0 1.0 0.00 0.06 0.00 85 1020.4
20260502050032 50 0 0.0 1.0 0.00 0.06 0.00 85 1020.5
20260502045515 50 0 0.0 0.0 0.00 0.06 0.06 84 1020.4
20260502045015 50 0 0.0 0.0 0.00 0.06 0.06 84 1020.2
20260502044531 51 0 0.0 0.0 0.00 0.06 0.06 84 1020.2
20260502044015 51 0 0.0 0.0 0.00 0.06 0.06 84 1020.2
20260502043515 51 0 0.0 0.0 0.00 0.06 0.06 83 1020.2
20260502043029 51 0 0.0 0.0 0.00 0.06 0.06 84 1020.2
20260502042515 51 0 0.0 0.0 0.00 0.06 0.06 84 1020.1
20260502042015 52 0 0.0 0.0 0.00 0.06 0.06 83 1020.1
20260502041539 52 0 0.0 0.0 0.00 0.06 0.06 83 1020.1
20260502041015 52 0 0.0 0.0 0.00 0.06 0.06 83 1020.1
20260502040516 52 0 0.0 0.0 0.00 0.06 0.06 83 1020.1
20260502040038 53 0 0.0 0.0 0.00 0.06 0.06 82 1020.1
20260502035515 53 0 0.0 0.0 0.00 0.06 0.06 81 1020.1
20260502035019 53 0 0.0 0.0 0.00 0.06 0.06 81 1020.0
20260502034529 54 0 0.0 0.0 0.00 0.06 0.06 81 1020.0
20260502034015 54 0 0.0 0.0 0.00 0.06 0.06 81 1019.9
20260502033514 54 0 0.0 0.0 0.00 0.06 0.06 81 1020.0
20260502033031 54 0 0.0 0.0 0.00 0.06 0.06 81 1020.0
20260502032518 55 0 0.0 0.0 0.00 0.06 0.06 81 1020.0
20260502032016 55 0 0.0 0.0 0.00 0.06 0.06 81 1019.9
20260502031532 55 0 0.0 1.0 0.00 0.06 0.06 81 1019.7
20260502031015 55 0 0.0 1.0 0.00 0.06 0.06 81 1019.7
20260502030515 55 0 0.0 1.0 0.00 0.06 0.06 81 1019.8
20260502030035 55 0 0.0 2.0 0.00 0.06 0.06 81 1019.8
20260502025515 55 0 0.0 2.0 0.00 0.06 0.06 81 1019.7
20260502025015 55 0 0.0 1.0 0.00 0.06 0.06 81 1019.6
20260502024540 55 0 0.0 1.0 0.00 0.06 0.06 81 1019.5
20260502024016 55 0 0.0 0.0 0.00 0.06 0.06 82 1019.5
20260502023516 55 0 0.0 0.0 0.00 0.06 0.06 81 1019.3
20260502023038 56 0 0.0 1.0 0.00 0.06 0.06 81 1019.2
20260502022516 56 0 0.0 1.0 0.00 0.06 0.06 81 1019.1
20260502022015 56 0 0.0 0.0 0.00 0.06 0.06 81 1019.1
20260502021530 56 0 0.0 0.0 0.00 0.06 0.06 81 1019.0
20260502021015 56 0 0.0 0.0 0.00 0.06 0.06 81 1018.9
20260502020516 56 0 0.0 0.0 0.00 0.06 0.06 81 1018.9
20260502020032 56 0 0.0 0.0 0.00 0.06 0.06 80 1018.8
20260502015517 56 0 0.0 0.0 0.00 0.06 0.06 80 1018.8
20260502015017 56 0 0.0 0.0 0.00 0.06 0.06 79 1018.8
20260502014538 56 0 0.0 0.0 0.00 0.06 0.06 79 1018.8
20260502014017 57 0 0.0 1.0 0.00 0.06 0.06 79 1018.6
20260502013516 57 0 0.0 1.0 0.00 0.06 0.06 79 1018.7
20260502013030 57 0 0.0 2.0 0.00 0.06 0.06 78 1018.5
20260502012518 57 0 0.0 2.0 0.00 0.06 0.06 78 1018.5
20260502012020 57 0 0.0 2.0 0.00 0.06 0.06 78 1018.4
20260502011538 57 0 0.0 2.0 0.00 0.06 0.06 77 1018.3
20260502011016 57 0 0.0 1.0 0.00 0.06 0.06 77 1018.3
20260502010519 57 0 0.0 1.0 0.00 0.06 0.06 77 1018.2
20260502010029 57 0 0.0 2.0 0.00 0.06 0.06 76 1018.1
20260502005517 58 0 0.0 2.0 0.00 0.06 0.06 75 1018.0
20260502005017 58 9 1.0 3.0 0.00 0.06 0.06 74 1017.9
20260502004530 58 0 0.0 3.0 0.00 0.06 0.06 74 1017.7
20260502004020 58 355 0.0 4.0 0.00 0.06 0.06 74 1017.5
20260502003518 58 19 1.0 6.0 0.00 0.06 0.06 74 1017.4
20260502003032 58 74 1.0 6.0 0.00 0.06 0.06 73 1017.1
20260502002516 58 49 0.0 6.0 0.00 0.06 0.06 73 1017.3
20260502002015 58 48 1.0 6.0 0.00 0.06 0.06 73 1017.2
20260502001530 58 81 1.0 8.0 0.00 0.06 0.06 73 1017.1
20260502001017 59 34 1.0 8.0 0.00 0.06 0.06 73 1017.0
20260502000518 59 352 2.0 6.0 0.00 0.06 0.06 73 1016.7
20260502000031 58 248 1.0 6.0 0.00 0.06 0.06 76 1016.5
20260501235517 58 0 1.0 10.0 0.00 0.07 0.06 76 1016.4
20260501235016 58 355 2.0 10.0 0.00 0.07 0.06 75 1016.4
20260501234528 59 5 2.0 10.0 0.00 0.07 0.06 74 1016.4
20260501234018 60 313 2.0 8.0 0.00 0.07 0.06 73 1016.4
20260501233515 60 49 3.0 8.0 0.00 0.07 0.06 74 1016.2
20260501233030 59 34 2.0 6.0 0.00 0.07 0.06 76 1016.1
20260501232518 58 73 1.0 11.0 0.00 0.07 0.06 77 1016.0
20260501232014 58 332 1.0 11.0 0.00 0.07 0.06 78 1015.9
20260501231532 58 142 2.0 8.0 0.00 0.07 0.06 77 1015.9
20260501231017 58 333 2.0 8.0 0.00 0.07 0.06 78 1015.9
20260501230514 58 0 2.0 8.0 0.00 0.07 0.06 78 1015.8
20260501230032 58 19 1.0 8.0 0.00 0.07 0.06 78 1015.7
20260501225520 58 355 1.0 8.0 0.00 0.07 0.06 77 1015.6
20260501225016 58 349 2.0 8.0 0.00 0.07 0.06 77 1015.5
20260501224541 57 17 2.0 9.0 0.00 0.07 0.06 78 1015.4
20260501224018 57 94 2.0 9.0 0.00 0.07 0.06 79 1015.2
20260501223515 57 337 2.0 9.0 0.00 0.07 0.06 79 1015.4
20260501223035 57 315 1.0 8.0 0.00 0.07 0.06 78 1015.5
20260501222515 57 59 2.0 8.0 0.00 0.07 0.06 78 1015.5
20260501222016 57 53 1.0 8.0 0.00 0.07 0.06 77 1015.7
20260501221528 58 18 2.0 8.0 0.00 0.07 0.06 78 1015.8
20260501221019 58 15 1.0 8.0 0.00 0.07 0.06 80 1015.8
20260501220523 58 348 1.0 6.0 0.00 0.07 0.06 83 1015.8
20260501220033 57 160 2.0 6.0 0.00 0.07 0.06 83 1015.8
20260501215518 57 67 1.0 5.0 0.00 0.07 0.06 83 1015.9
20260501215017 57 0 1.0 5.0 0.00 0.07 0.06 83 1016.0
20260501214530 57 329 1.0 5.0 0.00 0.07 0.06 85 1016.1
20260501214018 56 9 1.0 6.0 0.00 0.07 0.06 84 1016.2
20260501213515 56 74 1.0 9.0 0.00 0.07 0.06 83 1016.3
20260501213035 56 313 2.0 9.0 0.00 0.07 0.06 83 1016.3
20260501212518 56 51 2.0 9.0 0.00 0.07 0.06 83 1016.4
20260501212017 56 23 2.0 6.0 0.00 0.07 0.06 82 1016.6
20260501211536 56 69 2.0 7.0 0.00 0.07 0.06 82 1016.5
20260501211016 56 342 2.0 7.0 0.00 0.07 0.06 81 1016.6
20260501210517 56 18 2.0 8.0 0.01 0.07 0.06 80 1016.7
20260501210032 56 5 2.0 8.0 0.01 0.07 0.06 80 1016.6
20260501205517 56 27 2.0 8.0 0.01 0.08 0.06 80 1016.7
20260501205014 56 20 2.0 10.0 0.01 0.08 0.06 80 1016.7
20260501204540 56 23 1.0 10.0 0.01 0.08 0.06 80 1016.7
20260501204017 56 17 3.0 10.0 0.01 0.08 0.06 80 1016.7
20260501203518 56 360 2.0 11.0 0.01 0.08 0.06 84 1016.8
20260501203053 56 337 3.0 11.0 0.01 0.08 0.06 84 1016.7
20260501202518 56 325 2.0 11.0 0.01 0.08 0.06 84 1016.8
20260501202015 56 329 3.0 9.0 0.01 0.08 0.06 85 1016.8
20260501201531 56 37 2.0 6.0 0.01 0.08 0.06 88 1016.9
20260501201015 56 5 1.0 6.0 0.01 0.08 0.06 86 1017.0
20260501200515 56 347 1.0 6.0 0.00 0.07 0.05 86 1017.1
20260501200035 56 360 2.0 6.0 0.00 0.07 0.05 85 1017.3
20260501195518 56 315 1.0 5.0 0.00 0.07 0.05 84 1017.5
20260501195018 56 360 1.0 4.0 0.00 0.07 0.05 81 1017.6
20260501194533 56 360 0.0 4.0 0.00 0.07 0.05 82 1017.6
20260501194018 56 0 0.0 4.0 0.00 0.07 0.05 78 1017.7
20260501193518 56 0 0.0 4.0 0.00 0.07 0.05 78 1017.9
20260501193032 57 302 1.0 5.0 0.00 0.07 0.05 76 1017.7
20260501192520 57 355 1.0 5.0 0.00 0.07 0.05 76 1017.7
20260501192018 57 360 1.0 8.0 0.00 0.07 0.05 71 1017.7
20260501191530 57 72 1.0 8.0 0.00 0.07 0.05 69 1017.6
20260501191019 57 360 3.0 9.0 0.00 0.07 0.05 65 1017.5
20260501190519 57 351 2.0 9.0 0.00 0.07 0.05 67 1017.3
20260501190037 57 236 3.0 9.0 0.00 0.07 0.05 67 1017.2
20260501185602 57 76 2.0 10.0 0.00 0.07 0.05 69 1017.1
20260501185017 57 333 3.0 10.0 0.00 0.07 0.05 68 1016.9
20260501184556 58 339 2.0 9.0 0.00 0.07 0.05 70 1016.6
20260501184017 58 288 3.0 8.0 0.00 0.07 0.05 69 1016.4
20260501183518 59 46 1.0 9.0 0.00 0.07 0.05 70 1016.4
20260501183036 59 12 1.0 9.0 0.00 0.07 0.05 69 1016.3
20260501182515 59 144 2.0 10.0 0.00 0.07 0.05 69 1016.1
20260501182017 58 40 3.0 11.0 0.00 0.07 0.05 72 1015.9
20260501181536 58 165 3.0 12.0 0.00 0.07 0.05 70 1016.0
20260501181017 58 45 4.0 12.0 0.00 0.07 0.05 70 1016.2
20260501180519 58 167 2.0 12.0 0.00 0.07 0.05 74 1016.4
20260501180035 58 298 2.0 12.0 0.00 0.07 0.05 79 1016.3
20260501175515 58 0 1.0 11.0 0.00 0.07 0.05 77 1016.5
20260501175017 57 360 1.0 6.0 0.00 0.07 0.05 81 1016.6
20260501174534 57 65 1.0 6.0 0.00 0.07 0.05 82 1016.9
20260501174017 56 327 1.0 8.0 0.00 0.07 0.05 83 1017.1
20260501173517 56 43 1.0 8.0 0.00 0.07 0.05 83 1017.2
20260501173030 56 17 2.0 10.0 0.00 0.07 0.05 81 1017.3
20260501172517 56 55 3.0 10.0 0.00 0.07 0.05 80 1017.2
20260501172021 56 18 2.0 9.0 0.00 0.07 0.05 81 1017.1
20260501171532 57 52 2.0 9.0 0.00 0.07 0.05 82 1017.1